Terminal Aerodrome Forecast
Issued by NWS Grand Forks, ND

Home | Current Version | Previous Version | Graphics & Text | Print | Product List | Glossary On
Versions: 1 2 3 4 5 6 7 8 9 10 11 12 13 14 15 16 17 18 19 20
103
FTUS43 KFGF 231731
TAFGFK
TAF
KGFK 231731Z 2318/2418 35012KT P6SM BKN025
      TEMPO 2320/2323 BKN040
     FM232300 02009KT P6SM BKN045
     FM240200 02008KT P6SM VCSH OVC030
     FM240600 01010KT P6SM SHRA OVC015=

USA.gov is the U.S. government's official web portal to all federal, state and local government web resources and services.